sensor_id;sensor_type;location;lat;lon;timestamp;temperature;humidity
4651;DHT22;2338;49.602;8.722;2023-05-19T00:00:46;13.00;51.20
4651;DHT22;2338;49.602;8.722;2023-05-19T00:03:32;13.00;50.90
4651;DHT22;2338;49.602;8.722;2023-05-19T00:06:21;12.90;50.70
4651;DHT22;2338;49.602;8.722;2023-05-19T00:09:08;12.90;50.10
4651;DHT22;2338;49.602;8.722;2023-05-19T00:11:56;12.90;49.80
4651;DHT22;2338;49.602;8.722;2023-05-19T00:14:42;12.90;50.60
4651;DHT22;2338;49.602;8.722;2023-05-19T00:17:27;12.90;50.40
4651;DHT22;2338;49.602;8.722;2023-05-19T00:20:13;12.90;50.40
4651;DHT22;2338;49.602;8.722;2023-05-19T00:22:59;12.90;50.20
4651;DHT22;2338;49.602;8.722;2023-05-19T00:25:44;12.80;51.10
4651;DHT22;2338;49.602;8.722;2023-05-19T00:28:31;12.80;50.10
4651;DHT22;2338;49.602;8.722;2023-05-19T00:31:17;12.80;50.20
4651;DHT22;2338;49.602;8.722;2023-05-19T00:34:02;12.80;50.20
4651;DHT22;2338;49.602;8.722;2023-05-19T00:36:48;12.80;48.70
4651;DHT22;2338;49.602;8.722;2023-05-19T00:39:34;12.80;49.40
4651;DHT22;2338;49.602;8.722;2023-05-19T00:42:20;12.80;49.70
4651;DHT22;2338;49.602;8.722;2023-05-19T00:45:07;12.80;49.50
4651;DHT22;2338;49.602;8.722;2023-05-19T00:47:53;12.80;50.20
4651;DHT22;2338;49.602;8.722;2023-05-19T00:50:39;12.80;50.30
4651;DHT22;2338;49.602;8.722;2023-05-19T00:53:25;12.80;49.80
4651;DHT22;2338;49.602;8.722;2023-05-19T00:56:10;12.80;50.00
4651;DHT22;2338;49.602;8.722;2023-05-19T00:58:56;12.70;50.90
4651;DHT22;2338;49.602;8.722;2023-05-19T01:01:43;12.80;51.00
4651;DHT22;2338;49.602;8.722;2023-05-19T01:04:32;12.70;51.10
4651;DHT22;2338;49.602;8.722;2023-05-19T01:07:18;12.60;51.30
4651;DHT22;2338;49.602;8.722;2023-05-19T01:10:05;12.60;50.30
4651;DHT22;2338;49.602;8.722;2023-05-19T01:12:51;12.60;51.20
4651;DHT22;2338;49.602;8.722;2023-05-19T01:15:43;12.60;51.70
4651;DHT22;2338;49.602;8.722;2023-05-19T01:18:43;12.50;52.20
4651;DHT22;2338;49.602;8.722;2023-05-19T01:21:46;12.50;51.90
4651;DHT22;2338;49.602;8.722;2023-05-19T01:25:03;12.40;52.80
4651;DHT22;2338;49.602;8.722;2023-05-19T01:28:29;12.30;53.80
4651;DHT22;2338;49.602;8.722;2023-05-19T01:31:17;12.20;53.80
4651;DHT22;2338;49.602;8.722;2023-05-19T01:34:08;12.20;53.70
4651;DHT22;2338;49.602;8.722;2023-05-19T01:36:57;12.30;53.20
4651;DHT22;2338;49.602;8.722;2023-05-19T01:39:44;12.20;53.50
4651;DHT22;2338;49.602;8.722;2023-05-19T01:42:31;12.20;54.50
4651;DHT22;2338;49.602;8.722;2023-05-19T01:45:20;12.20;55.90
4651;DHT22;2338;49.602;8.722;2023-05-19T01:48:08;12.10;55.40
4651;DHT22;2338;49.602;8.722;2023-05-19T01:50:53;12.20;55.20
4651;DHT22;2338;49.602;8.722;2023-05-19T01:53:40;12.20;54.90
4651;DHT22;2338;49.602;8.722;2023-05-19T01:56:42;12.10;56.00
4651;DHT22;2338;49.602;8.722;2023-05-19T01:59:39;12.00;56.60
4651;DHT22;2338;49.602;8.722;2023-05-19T02:02:35;12.00;56.80
4651;DHT22;2338;49.602;8.722;2023-05-19T02:05:30;12.00;57.80
4651;DHT22;2338;49.602;8.722;2023-05-19T02:08:24;12.00;57.10
4651;DHT22;2338;49.602;8.722;2023-05-19T02:11:15;12.00;56.30
4651;DHT22;2338;49.602;8.722;2023-05-19T02:14:08;12.00;56.40
4651;DHT22;2338;49.602;8.722;2023-05-19T02:16:56;11.90;56.90
4651;DHT22;2338;49.602;8.722;2023-05-19T02:19:42;11.90;57.90
4651;DHT22;2338;49.602;8.722;2023-05-19T02:22:29;11.80;57.80
4651;DHT22;2338;49.602;8.722;2023-05-19T02:25:14;11.70;60.10
4651;DHT22;2338;49.602;8.722;2023-05-19T02:28:00;11.70;60.30
4651;DHT22;2338;49.602;8.722;2023-05-19T02:30:45;11.70;60.40
4651;DHT22;2338;49.602;8.722;2023-05-19T02:33:31;11.60;61.30
4651;DHT22;2338;49.602;8.722;2023-05-19T02:36:16;11.40;63.80
4651;DHT22;2338;49.602;8.722;2023-05-19T02:39:03;11.30;65.60
4651;DHT22;2338;49.602;8.722;2023-05-19T02:41:48;11.20;66.00
4651;DHT22;2338;49.602;8.722;2023-05-19T02:44:34;11.20;67.40
4651;DHT22;2338;49.602;8.722;2023-05-19T02:47:20;11.20;68.50
4651;DHT22;2338;49.602;8.722;2023-05-19T02:50:06;11.00;68.60
4651;DHT22;2338;49.602;8.722;2023-05-19T02:52:52;11.00;68.20
4651;DHT22;2338;49.602;8.722;2023-05-19T02:55:39;11.00;69.60
4651;DHT22;2338;49.602;8.722;2023-05-19T02:58:24;10.90;71.80
4651;DHT22;2338;49.602;8.722;2023-05-19T03:01:10;10.80;71.60
4651;DHT22;2338;49.602;8.722;2023-05-19T03:03:55;10.80;72.90
4651;DHT22;2338;49.602;8.722;2023-05-19T03:06:41;10.80;74.10
4651;DHT22;2338;49.602;8.722;2023-05-19T03:09:28;10.80;72.30
4651;DHT22;2338;49.602;8.722;2023-05-19T03:12:15;10.70;72.30
4651;DHT22;2338;49.602;8.722;2023-05-19T03:15:01;10.70;74.50
4651;DHT22;2338;49.602;8.722;2023-05-19T03:17:49;10.70;74.00
4651;DHT22;2338;49.602;8.722;2023-05-19T03:20:35;10.60;74.30
4651;DHT22;2338;49.602;8.722;2023-05-19T03:23:21;10.50;75.20
4651;DHT22;2338;49.602;8.722;2023-05-19T03:26:06;10.50;75.20
4651;DHT22;2338;49.602;8.722;2023-05-19T03:28:53;10.60;73.90
4651;DHT22;2338;49.602;8.722;2023-05-19T03:31:39;10.70;73.70
4651;DHT22;2338;49.602;8.722;2023-05-19T03:34:24;10.70;74.70
4651;DHT22;2338;49.602;8.722;2023-05-19T03:37:10;10.80;73.20
4651;DHT22;2338;49.602;8.722;2023-05-19T03:39:55;10.80;72.40
4651;DHT22;2338;49.602;8.722;2023-05-19T03:42:41;10.70;72.30
4651;DHT22;2338;49.602;8.722;2023-05-19T03:45:28;10.80;70.50
4651;DHT22;2338;49.602;8.722;2023-05-19T03:48:13;10.80;70.90
4651;DHT22;2338;49.602;8.722;2023-05-19T03:50:59;10.80;71.80
4651;DHT22;2338;49.602;8.722;2023-05-19T03:53:44;10.90;72.10
4651;DHT22;2338;49.602;8.722;2023-05-19T03:56:30;10.60;72.20
4651;DHT22;2338;49.602;8.722;2023-05-19T03:59:15;10.60;73.80
4651;DHT22;2338;49.602;8.722;2023-05-19T04:02:02;10.60;75.30
4651;DHT22;2338;49.602;8.722;2023-05-19T04:04:48;10.40;76.10
4651;DHT22;2338;49.602;8.722;2023-05-19T04:07:34;10.30;78.50
4651;DHT22;2338;49.602;8.722;2023-05-19T04:10:20;10.30;79.50
4651;DHT22;2338;49.602;8.722;2023-05-19T04:13:05;10.30;80.00
4651;DHT22;2338;49.602;8.722;2023-05-19T04:15:51;10.20;80.40
4651;DHT22;2338;49.602;8.722;2023-05-19T04:18:38;10.20;81.90
4651;DHT22;2338;49.602;8.722;2023-05-19T04:21:23;10.30;82.20
4651;DHT22;2338;49.602;8.722;2023-05-19T04:24:09;10.30;82.60
4651;DHT22;2338;49.602;8.722;2023-05-19T04:26:54;10.40;82.10
4651;DHT22;2338;49.602;8.722;2023-05-19T04:29:40;10.50;80.80
4651;DHT22;2338;49.602;8.722;2023-05-19T04:32:26;10.50;79.70
4651;DHT22;2338;49.602;8.722;2023-05-19T04:35:13;10.60;78.30
4651;DHT22;2338;49.602;8.722;2023-05-19T04:38:00;10.80;75.40
4651;DHT22;2338;49.602;8.722;2023-05-19T04:40:46;10.90;75.90
4651;DHT22;2338;49.602;8.722;2023-05-19T04:43:33;11.10;73.40
4651;DHT22;2338;49.602;8.722;2023-05-19T04:46:18;11.20;73.70
4651;DHT22;2338;49.602;8.722;2023-05-19T04:49:07;11.30;73.50
4651;DHT22;2338;49.602;8.722;2023-05-19T04:51:56;11.40;71.80
4651;DHT22;2338;49.602;8.722;2023-05-19T04:54:42;11.50;71.70
4651;DHT22;2338;49.602;8.722;2023-05-19T04:57:27;11.50;69.40
4651;DHT22;2338;49.602;8.722;2023-05-19T05:00:13;11.60;70.60
4651;DHT22;2338;49.602;8.722;2023-05-19T05:02:59;11.70;70.90
4651;DHT22;2338;49.602;8.722;2023-05-19T05:05:48;11.60;70.40
4651;DHT22;2338;49.602;8.722;2023-05-19T05:08:35;11.70;69.10
4651;DHT22;2338;49.602;8.722;2023-05-19T05:11:23;11.70;67.80
4651;DHT22;2338;49.602;8.722;2023-05-19T05:14:10;11.80;67.90
4651;DHT22;2338;49.602;8.722;2023-05-19T05:16:55;11.80;67.90
4651;DHT22;2338;49.602;8.722;2023-05-19T05:19:41;11.90;67.40
4651;DHT22;2338;49.602;8.722;2023-05-19T05:22:27;12.00;65.10
4651;DHT22;2338;49.602;8.722;2023-05-19T05:25:16;12.10;66.10
4651;DHT22;2338;49.602;8.722;2023-05-19T05:28:02;12.20;64.80
4651;DHT22;2338;49.602;8.722;2023-05-19T05:30:48;12.20;64.00
4651;DHT22;2338;49.602;8.722;2023-05-19T05:33:33;12.20;64.70
4651;DHT22;2338;49.602;8.722;2023-05-19T05:36:19;12.30;64.60
4651;DHT22;2338;49.602;8.722;2023-05-19T05:39:05;12.40;64.40
4651;DHT22;2338;49.602;8.722;2023-05-19T05:41:51;12.50;64.20
4651;DHT22;2338;49.602;8.722;2023-05-19T05:44:37;12.50;63.70
4651;DHT22;2338;49.602;8.722;2023-05-19T05:47:23;12.60;64.10
4651;DHT22;2338;49.602;8.722;2023-05-19T05:50:09;12.70;64.50
4651;DHT22;2338;49.602;8.722;2023-05-19T05:52:56;12.90;63.60
4651;DHT22;2338;49.602;8.722;2023-05-19T05:55:44;13.00;62.90
4651;DHT22;2338;49.602;8.722;2023-05-19T05:58:31;13.00;62.60
4651;DHT22;2338;49.602;8.722;2023-05-19T06:01:17;13.00;63.10
4651;DHT22;2338;49.602;8.722;2023-05-19T06:04:04;13.10;62.30
4651;DHT22;2338;49.602;8.722;2023-05-19T06:06:49;13.10;62.70
4651;DHT22;2338;49.602;8.722;2023-05-19T06:09:35;13.20;63.10
4651;DHT22;2338;49.602;8.722;2023-05-19T06:12:21;13.20;62.60
4651;DHT22;2338;49.602;8.722;2023-05-19T06:15:09;13.30;61.50
4651;DHT22;2338;49.602;8.722;2023-05-19T06:17:54;13.30;62.80
4651;DHT22;2338;49.602;8.722;2023-05-19T06:20:40;13.50;59.60
4651;DHT22;2338;49.602;8.722;2023-05-19T06:23:26;13.50;60.80
4651;DHT22;2338;49.602;8.722;2023-05-19T06:26:11;13.60;61.90
4651;DHT22;2338;49.602;8.722;2023-05-19T06:28:58;13.70;59.90
4651;DHT22;2338;49.602;8.722;2023-05-19T06:31:45;13.90;60.30
4651;DHT22;2338;49.602;8.722;2023-05-19T06:34:30;14.00;58.10
4651;DHT22;2338;49.602;8.722;2023-05-19T06:37:16;14.10;60.10
4651;DHT22;2338;49.602;8.722;2023-05-19T06:40:02;14.30;59.40
4651;DHT22;2338;49.602;8.722;2023-05-19T06:42:48;14.30;56.20
4651;DHT22;2338;49.602;8.722;2023-05-19T06:45:34;14.40;58.20
4651;DHT22;2338;49.602;8.722;2023-05-19T06:48:21;14.50;55.90
4651;DHT22;2338;49.602;8.722;2023-05-19T06:51:06;14.50;55.60
4651;DHT22;2338;49.602;8.722;2023-05-19T06:53:53;14.60;56.00
4651;DHT22;2338;49.602;8.722;2023-05-19T06:56:38;14.60;55.10
4651;DHT22;2338;49.602;8.722;2023-05-19T06:59:24;14.70;56.40
4651;DHT22;2338;49.602;8.722;2023-05-19T07:02:09;14.80;52.10
4651;DHT22;2338;49.602;8.722;2023-05-19T07:04:56;14.80;50.30
4651;DHT22;2338;49.602;8.722;2023-05-19T07:07:42;14.90;53.90
4651;DHT22;2338;49.602;8.722;2023-05-19T07:10:27;14.90;52.30
4651;DHT22;2338;49.602;8.722;2023-05-19T07:13:13;15.00;52.00
4651;DHT22;2338;49.602;8.722;2023-05-19T07:15:59;15.10;51.10
4651;DHT22;2338;49.602;8.722;2023-05-19T07:18:44;15.10;53.10
4651;DHT22;2338;49.602;8.722;2023-05-19T07:21:31;15.10;51.00
4651;DHT22;2338;49.602;8.722;2023-05-19T07:24:16;15.20;50.60
4651;DHT22;2338;49.602;8.722;2023-05-19T07:27:04;15.20;50.40
4651;DHT22;2338;49.602;8.722;2023-05-19T07:29:49;15.30;49.10
4651;DHT22;2338;49.602;8.722;2023-05-19T07:32:35;15.30;48.30
4651;DHT22;2338;49.602;8.722;2023-05-19T07:35:20;15.20;48.20
4651;DHT22;2338;49.602;8.722;2023-05-19T07:38:08;15.20;49.00
4651;DHT22;2338;49.602;8.722;2023-05-19T07:40:53;15.20;48.20
4651;DHT22;2338;49.602;8.722;2023-05-19T07:43:39;15.30;48.30
4651;DHT22;2338;49.602;8.722;2023-05-19T07:46:24;15.40;49.20
4651;DHT22;2338;49.602;8.722;2023-05-19T07:49:10;15.50;44.50
4651;DHT22;2338;49.602;8.722;2023-05-19T07:51:56;15.60;38.90
4651;DHT22;2338;49.602;8.722;2023-05-19T07:54:42;15.60;40.00
4651;DHT22;2338;49.602;8.722;2023-05-19T07:57:28;15.70;42.90
4651;DHT22;2338;49.602;8.722;2023-05-19T08:00:14;15.80;44.00
4651;DHT22;2338;49.602;8.722;2023-05-19T08:03:01;15.90;38.50
4651;DHT22;2338;49.602;8.722;2023-05-19T08:05:46;16.10;41.40
4651;DHT22;2338;49.602;8.722;2023-05-19T08:08:31;16.30;40.90
4651;DHT22;2338;49.602;8.722;2023-05-19T08:11:18;16.30;39.00
4651;DHT22;2338;49.602;8.722;2023-05-19T08:14:04;16.50;35.90
4651;DHT22;2338;49.602;8.722;2023-05-19T08:16:49;16.50;37.10
4651;DHT22;2338;49.602;8.722;2023-05-19T08:19:35;16.60;36.00
4651;DHT22;2338;49.602;8.722;2023-05-19T08:22:21;16.70;37.20
4651;DHT22;2338;49.602;8.722;2023-05-19T08:25:07;16.80;37.10
4651;DHT22;2338;49.602;8.722;2023-05-19T08:27:53;16.90;38.20
4651;DHT22;2338;49.602;8.722;2023-05-19T08:30:39;16.90;36.10
4651;DHT22;2338;49.602;8.722;2023-05-19T08:33:25;16.90;34.10
4651;DHT22;2338;49.602;8.722;2023-05-19T08:36:10;17.00;37.60
4651;DHT22;2338;49.602;8.722;2023-05-19T08:38:56;17.00;36.40
4651;DHT22;2338;49.602;8.722;2023-05-19T08:41:41;17.00;36.20
4651;DHT22;2338;49.602;8.722;2023-05-19T08:44:28;17.00;35.60
4651;DHT22;2338;49.602;8.722;2023-05-19T08:47:14;16.90;31.10
4651;DHT22;2338;49.602;8.722;2023-05-19T08:50:03;16.90;33.80
4651;DHT22;2338;49.602;8.722;2023-05-19T08:52:51;16.90;35.10
4651;DHT22;2338;49.602;8.722;2023-05-19T08:55:45;16.90;35.60
4651;DHT22;2338;49.602;8.722;2023-05-19T08:58:31;16.90;36.30
4651;DHT22;2338;49.602;8.722;2023-05-19T09:01:19;16.90;31.60
4651;DHT22;2338;49.602;8.722;2023-05-19T09:04:06;16.90;31.40
4651;DHT22;2338;49.602;8.722;2023-05-19T09:06:52;17.00;34.30
4651;DHT22;2338;49.602;8.722;2023-05-19T09:09:37;17.00;31.70
4651;DHT22;2338;49.602;8.722;2023-05-19T09:12:26;17.10;35.10
4651;DHT22;2338;49.602;8.722;2023-05-19T09:15:12;17.30;36.70
4651;DHT22;2338;49.602;8.722;2023-05-19T09:18:05;17.40;36.80
4651;DHT22;2338;49.602;8.722;2023-05-19T09:20:55;17.60;38.70
4651;DHT22;2338;49.602;8.722;2023-05-19T09:23:45;17.70;30.70
4651;DHT22;2338;49.602;8.722;2023-05-19T09:26:35;17.90;30.90
4651;DHT22;2338;49.602;8.722;2023-05-19T09:29:21;17.90;31.20
4651;DHT22;2338;49.602;8.722;2023-05-19T09:32:07;17.90;30.90
4651;DHT22;2338;49.602;8.722;2023-05-19T09:34:54;17.90;33.30
4651;DHT22;2338;49.602;8.722;2023-05-19T09:37:40;17.80;31.20
4651;DHT22;2338;49.602;8.722;2023-05-19T09:40:27;17.80;32.10
4651;DHT22;2338;49.602;8.722;2023-05-19T09:43:13;17.80;31.70
4651;DHT22;2338;49.602;8.722;2023-05-19T09:45:59;17.80;32.60
4651;DHT22;2338;49.602;8.722;2023-05-19T09:48:45;17.70;31.40
4651;DHT22;2338;49.602;8.722;2023-05-19T09:51:32;17.70;30.70
4651;DHT22;2338;49.602;8.722;2023-05-19T09:54:20;17.70;29.70
4651;DHT22;2338;49.602;8.722;2023-05-19T09:57:06;17.80;34.20
4651;DHT22;2338;49.602;8.722;2023-05-19T09:59:53;18.00;31.80
4651;DHT22;2338;49.602;8.722;2023-05-19T10:02:41;18.00;31.00
4651;DHT22;2338;49.602;8.722;2023-05-19T10:05:27;18.00;27.90
4651;DHT22;2338;49.602;8.722;2023-05-19T10:08:15;18.10;27.90
4651;DHT22;2338;49.602;8.722;2023-05-19T10:11:02;18.10;30.00
4651;DHT22;2338;49.602;8.722;2023-05-19T10:13:50;18.10;27.80
4651;DHT22;2338;49.602;8.722;2023-05-19T10:16:35;18.20;33.20
4651;DHT22;2338;49.602;8.722;2023-05-19T10:19:22;18.30;29.60
4651;DHT22;2338;49.602;8.722;2023-05-19T10:22:08;18.60;33.20
4651;DHT22;2338;49.602;8.722;2023-05-19T10:24:55;18.90;30.60
4651;DHT22;2338;49.602;8.722;2023-05-19T10:27:42;19.10;29.40
4651;DHT22;2338;49.602;8.722;2023-05-19T10:30:33;19.30;27.50
4651;DHT22;2338;49.602;8.722;2023-05-19T10:33:20;19.20;27.50
4651;DHT22;2338;49.602;8.722;2023-05-19T10:36:28;19.00;27.10
4651;DHT22;2338;49.602;8.722;2023-05-19T10:39:22;18.90;28.20
4651;DHT22;2338;49.602;8.722;2023-05-19T10:42:15;19.00;30.30
4651;DHT22;2338;49.602;8.722;2023-05-19T10:45:07;19.30;27.60
4651;DHT22;2338;49.602;8.722;2023-05-19T10:47:54;19.30;28.10
4651;DHT22;2338;49.602;8.722;2023-05-19T10:50:39;19.40;28.90
4651;DHT22;2338;49.602;8.722;2023-05-19T10:53:30;19.50;27.90
4651;DHT22;2338;49.602;8.722;2023-05-19T10:56:29;19.50;26.00
4651;DHT22;2338;49.602;8.722;2023-05-19T10:59:39;19.30;27.60
4651;DHT22;2338;49.602;8.722;2023-05-19T11:02:36;19.40;29.00
4651;DHT22;2338;49.602;8.722;2023-05-19T11:05:27;19.40;24.60
4651;DHT22;2338;49.602;8.722;2023-05-19T11:08:13;19.30;25.80
4651;DHT22;2338;49.602;8.722;2023-05-19T11:11:11;19.30;27.40
4651;DHT22;2338;49.602;8.722;2023-05-19T11:13:59;19.20;24.00
4651;DHT22;2338;49.602;8.722;2023-05-19T11:16:47;19.20;25.70
4651;DHT22;2338;49.602;8.722;2023-05-19T11:19:34;19.20;26.50
4651;DHT22;2338;49.602;8.722;2023-05-19T11:22:22;19.30;26.50
4651;DHT22;2338;49.602;8.722;2023-05-19T11:25:09;19.60;27.60
4651;DHT22;2338;49.602;8.722;2023-05-19T11:27:54;19.80;25.30
4651;DHT22;2338;49.602;8.722;2023-05-19T11:30:41;19.80;25.00
4651;DHT22;2338;49.602;8.722;2023-05-19T11:33:28;19.80;24.90
4651;DHT22;2338;49.602;8.722;2023-05-19T11:36:16;19.90;26.40
4651;DHT22;2338;49.602;8.722;2023-05-19T11:39:01;20.20;29.90
4651;DHT22;2338;49.602;8.722;2023-05-19T11:41:50;20.40;26.10
4651;DHT22;2338;49.602;8.722;2023-05-19T11:44:35;20.50;25.80
4651;DHT22;2338;49.602;8.722;2023-05-19T11:47:21;20.50;25.80
4651;DHT22;2338;49.602;8.722;2023-05-19T11:50:10;20.40;24.80
4651;DHT22;2338;49.602;8.722;2023-05-19T11:52:55;20.40;26.00
4651;DHT22;2338;49.602;8.722;2023-05-19T11:55:41;20.40;24.30
4651;DHT22;2338;49.602;8.722;2023-05-19T11:58:27;20.30;24.70
4651;DHT22;2338;49.602;8.722;2023-05-19T12:01:13;20.30;25.40
4651;DHT22;2338;49.602;8.722;2023-05-19T12:03:58;20.30;25.70
4651;DHT22;2338;49.602;8.722;2023-05-19T12:06:47;20.10;24.50
4651;DHT22;2338;49.602;8.722;2023-05-19T12:09:33;20.00;26.40
4651;DHT22;2338;49.602;8.722;2023-05-19T12:12:19;20.00;27.50
4651;DHT22;2338;49.602;8.722;2023-05-19T12:15:06;20.20;25.80
4651;DHT22;2338;49.602;8.722;2023-05-19T12:17:56;20.30;26.70
4651;DHT22;2338;49.602;8.722;2023-05-19T12:20:42;20.30;26.70
4651;DHT22;2338;49.602;8.722;2023-05-19T12:23:29;20.30;26.60
4651;DHT22;2338;49.602;8.722;2023-05-19T12:26:15;20.20;25.70
4651;DHT22;2338;49.602;8.722;2023-05-19T12:29:04;20.10;26.50
4651;DHT22;2338;49.602;8.722;2023-05-19T12:31:50;20.10;27.20
4651;DHT22;2338;49.602;8.722;2023-05-19T12:34:35;20.10;28.00
4651;DHT22;2338;49.602;8.722;2023-05-19T12:37:21;20.10;25.10
4651;DHT22;2338;49.602;8.722;2023-05-19T12:40:14;20.00;27.40
4651;DHT22;2338;49.602;8.722;2023-05-19T12:43:00;19.90;26.40
4651;DHT22;2338;49.602;8.722;2023-05-19T12:45:46;19.80;26.20
4651;DHT22;2338;49.602;8.722;2023-05-19T12:48:31;19.70;26.90
4651;DHT22;2338;49.602;8.722;2023-05-19T12:51:17;19.60;27.80
4651;DHT22;2338;49.602;8.722;2023-05-19T12:54:03;19.50;28.00
4651;DHT22;2338;49.602;8.722;2023-05-19T12:56:50;19.50;30.40
4651;DHT22;2338;49.602;8.722;2023-05-19T12:59:35;19.40;28.10
4651;DHT22;2338;49.602;8.722;2023-05-19T13:02:20;19.30;29.00
4651;DHT22;2338;49.602;8.722;2023-05-19T13:05:08;19.30;29.20
4651;DHT22;2338;49.602;8.722;2023-05-19T13:07:54;19.20;30.60
4651;DHT22;2338;49.602;8.722;2023-05-19T13:10:42;19.20;30.90
4651;DHT22;2338;49.602;8.722;2023-05-19T13:13:29;19.30;29.90
4651;DHT22;2338;49.602;8.722;2023-05-19T13:16:14;19.50;30.80
4651;DHT22;2338;49.602;8.722;2023-05-19T13:19:00;19.60;31.60
4651;DHT22;2338;49.602;8.722;2023-05-19T13:21:45;19.80;31.20
4651;DHT22;2338;49.602;8.722;2023-05-19T13:24:32;20.00;30.30
4651;DHT22;2338;49.602;8.722;2023-05-19T13:27:18;20.10;29.40
4651;DHT22;2338;49.602;8.722;2023-05-19T13:30:06;20.40;28.90
4651;DHT22;2338;49.602;8.722;2023-05-19T13:32:52;20.60;29.10
4651;DHT22;2338;49.602;8.722;2023-05-19T13:35:37;20.70;28.20
4651;DHT22;2338;49.602;8.722;2023-05-19T13:38:23;20.80;28.10
4651;DHT22;2338;49.602;8.722;2023-05-19T13:41:08;21.00;27.20
4651;DHT22;2338;49.602;8.722;2023-05-19T13:43:55;21.20;27.30
4651;DHT22;2338;49.602;8.722;2023-05-19T13:46:42;21.00;26.80
4651;DHT22;2338;49.602;8.722;2023-05-19T13:49:28;20.90;27.10
4651;DHT22;2338;49.602;8.722;2023-05-19T13:52:13;20.80;27.10
4651;DHT22;2338;49.602;8.722;2023-05-19T13:54:59;20.80;27.10
4651;DHT22;2338;49.602;8.722;2023-05-19T13:57:44;20.70;27.10
4651;DHT22;2338;49.602;8.722;2023-05-19T14:00:30;20.50;26.80
4651;DHT22;2338;49.602;8.722;2023-05-19T14:03:17;20.40;26.70
4651;DHT22;2338;49.602;8.722;2023-05-19T14:06:02;20.40;26.80
4651;DHT22;2338;49.602;8.722;2023-05-19T14:08:48;20.40;26.70
4651;DHT22;2338;49.602;8.722;2023-05-19T14:11:34;20.40;25.70
4651;DHT22;2338;49.602;8.722;2023-05-19T14:14:19;20.40;26.70
4651;DHT22;2338;49.602;8.722;2023-05-19T14:17:05;20.20;26.60
4651;DHT22;2338;49.602;8.722;2023-05-19T14:19:51;20.10;26.50
4651;DHT22;2338;49.602;8.722;2023-05-19T14:22:37;20.00;28.10
4651;DHT22;2338;49.602;8.722;2023-05-19T14:25:23;19.90;29.20
4651;DHT22;2338;49.602;8.722;2023-05-19T14:28:08;19.80;29.20
4651;DHT22;2338;49.602;8.722;2023-05-19T14:30:54;19.70;30.70
4651;DHT22;2338;49.602;8.722;2023-05-19T14:33:40;19.60;29.20
4651;DHT22;2338;49.602;8.722;2023-05-19T14:36:27;19.50;29.30
4651;DHT22;2338;49.602;8.722;2023-05-19T14:39:12;19.40;29.30
4651;DHT22;2338;49.602;8.722;2023-05-19T14:41:58;19.30;28.70
4651;DHT22;2338;49.602;8.722;2023-05-19T14:44:43;19.20;28.00
4651;DHT22;2338;49.602;8.722;2023-05-19T14:47:28;19.20;29.80
4651;DHT22;2338;49.602;8.722;2023-05-19T14:50:14;19.00;28.80
4651;DHT22;2338;49.602;8.722;2023-05-19T14:53:01;19.00;28.70
4651;DHT22;2338;49.602;8.722;2023-05-19T14:55:46;19.00;29.80
4651;DHT22;2338;49.602;8.722;2023-05-19T14:58:32;19.00;29.50
4651;DHT22;2338;49.602;8.722;2023-05-19T15:01:18;19.10;32.00
4651;DHT22;2338;49.602;8.722;2023-05-19T15:04:03;19.00;31.40
4651;DHT22;2338;49.602;8.722;2023-05-19T15:06:49;19.00;31.40
4651;DHT22;2338;49.602;8.722;2023-05-19T15:09:36;19.00;32.20
4651;DHT22;2338;49.602;8.722;2023-05-19T15:12:21;19.00;31.20
4651;DHT22;2338;49.602;8.722;2023-05-19T15:15:07;19.00;30.60
4651;DHT22;2338;49.602;8.722;2023-05-19T15:17:53;19.00;32.00
4651;DHT22;2338;49.602;8.722;2023-05-19T15:20:39;19.00;31.90
4651;DHT22;2338;49.602;8.722;2023-05-19T15:23:24;19.00;31.80
4651;DHT22;2338;49.602;8.722;2023-05-19T15:26:12;19.00;31.40
4651;DHT22;2338;49.602;8.722;2023-05-19T15:28:57;18.90;32.70
4651;DHT22;2338;49.602;8.722;2023-05-19T15:31:43;18.90;33.60
4651;DHT22;2338;49.602;8.722;2023-05-19T15:34:28;18.90;30.20
4651;DHT22;2338;49.602;8.722;2023-05-19T15:37:14;18.90;31.30
4651;DHT22;2338;49.602;8.722;2023-05-19T15:39:59;18.90;31.60
4651;DHT22;2338;49.602;8.722;2023-05-19T15:42:46;18.90;31.30
4651;DHT22;2338;49.602;8.722;2023-05-19T15:45:31;18.90;31.20
4651;DHT22;2338;49.602;8.722;2023-05-19T15:48:17;18.90;32.20
4651;DHT22;2338;49.602;8.722;2023-05-19T15:51:03;18.90;30.50
4651;DHT22;2338;49.602;8.722;2023-05-19T15:53:48;19.00;31.20
4651;DHT22;2338;49.602;8.722;2023-05-19T15:56:34;19.00;30.00
4651;DHT22;2338;49.602;8.722;2023-05-19T15:59:21;19.10;31.50
4651;DHT22;2338;49.602;8.722;2023-05-19T16:02:06;19.20;31.60
4651;DHT22;2338;49.602;8.722;2023-05-19T16:04:52;19.20;34.20
4651;DHT22;2338;49.602;8.722;2023-05-19T16:07:38;19.30;31.70
4651;DHT22;2338;49.602;8.722;2023-05-19T16:10:24;19.30;30.40
4651;DHT22;2338;49.602;8.722;2023-05-19T16:13:10;19.20;29.60
4651;DHT22;2338;49.602;8.722;2023-05-19T16:15:57;19.30;31.00
4651;DHT22;2338;49.602;8.722;2023-05-19T16:18:42;19.20;31.00
4651;DHT22;2338;49.602;8.722;2023-05-19T16:21:27;19.20;30.20
4651;DHT22;2338;49.602;8.722;2023-05-19T16:24:13;19.20;29.40
4651;DHT22;2338;49.602;8.722;2023-05-19T16:26:58;19.10;28.40
4651;DHT22;2338;49.602;8.722;2023-05-19T16:29:44;19.00;30.00
4651;DHT22;2338;49.602;8.722;2023-05-19T16:32:31;19.00;29.00
4651;DHT22;2338;49.602;8.722;2023-05-19T16:35:16;19.00;31.40
4651;DHT22;2338;49.602;8.722;2023-05-19T16:38:02;18.90;32.30
4651;DHT22;2338;49.602;8.722;2023-05-19T16:40:48;18.90;30.20
4651;DHT22;2338;49.602;8.722;2023-05-19T16:43:33;18.80;30.30
4651;DHT22;2338;49.602;8.722;2023-05-19T16:46:19;18.70;27.60
4651;DHT22;2338;49.602;8.722;2023-05-19T16:49:06;18.70;28.00
4651;DHT22;2338;49.602;8.722;2023-05-19T16:51:52;18.60;27.10
4651;DHT22;2338;49.602;8.722;2023-05-19T16:54:39;18.60;27.40
4651;DHT22;2338;49.602;8.722;2023-05-19T16:57:24;18.60;27.70
4651;DHT22;2338;49.602;8.722;2023-05-19T17:00:11;18.60;27.70
4651;DHT22;2338;49.602;8.722;2023-05-19T17:02:57;18.60;28.00
4651;DHT22;2338;49.602;8.722;2023-05-19T17:05:44;18.60;28.60
4651;DHT22;2338;49.602;8.722;2023-05-19T17:08:29;18.60;27.80
4651;DHT22;2338;49.602;8.722;2023-05-19T17:11:15;18.60;28.40
4651;DHT22;2338;49.602;8.722;2023-05-19T17:14:00;18.60;28.60
4651;DHT22;2338;49.602;8.722;2023-05-19T17:16:50;18.60;29.20
4651;DHT22;2338;49.602;8.722;2023-05-19T17:19:36;18.50;29.40
4651;DHT22;2338;49.602;8.722;2023-05-19T17:22:23;18.50;29.20
4651;DHT22;2338;49.602;8.722;2023-05-19T17:25:08;18.60;29.20
4651;DHT22;2338;49.602;8.722;2023-05-19T17:27:54;18.50;29.70
4651;DHT22;2338;49.602;8.722;2023-05-19T17:30:39;18.50;28.60
4651;DHT22;2338;49.602;8.722;2023-05-19T17:33:25;18.60;28.70
4651;DHT22;2338;49.602;8.722;2023-05-19T17:36:11;18.60;29.80
4651;DHT22;2338;49.602;8.722;2023-05-19T17:38:57;18.60;29.00
4651;DHT22;2338;49.602;8.722;2023-05-19T17:41:43;18.60;28.10
4651;DHT22;2338;49.602;8.722;2023-05-19T17:44:29;18.60;28.50
4651;DHT22;2338;49.602;8.722;2023-05-19T17:47:14;18.50;28.90
4651;DHT22;2338;49.602;8.722;2023-05-19T17:50:00;18.60;28.80
4651;DHT22;2338;49.602;8.722;2023-05-19T17:52:46;18.60;29.50
4651;DHT22;2338;49.602;8.722;2023-05-19T17:55:33;18.50;29.30
4651;DHT22;2338;49.602;8.722;2023-05-19T17:58:19;18.50;29.40
4651;DHT22;2338;49.602;8.722;2023-05-19T18:01:05;18.40;29.40
4651;DHT22;2338;49.602;8.722;2023-05-19T18:03:51;18.40;29.40
4651;DHT22;2338;49.602;8.722;2023-05-19T18:06:38;18.40;30.30
4651;DHT22;2338;49.602;8.722;2023-05-19T18:09:25;18.40;29.50